Time;durP1;ratioP1;P1;durP2;ratioP2;P2;SDS_P1;SDS_P2;PMS_P1;PMS_P2;Temp;Humidity;BMP_temperature;BMP_pressure;BME280_temperature;BME280_humidity;BME280_pressure;Samples;Min_cycle;Max_cycle;Signal;HPM_P1;HPM_P2
2022/09/17 00:01:38;;;;;;;;;;;;;;;-144.99;100.00;52342.09;5067846;28;19936;-73
2022/09/17 00:04:06;;;;;;;;;;;;;;;-144.99;100.00;52399.19;5076705;28;19933;-73
2022/09/17 00:06:33;;;;;;;;;;;;;;;-144.99;100.00;52364.53;5086310;28;19931;-74
2022/09/17 00:09:00;;;;;;;;;;;;;;;-144.99;100.00;52358.41;5083230;28;19924;-75
2022/09/17 00:11:27;;;;;;;;;;;;;;;-144.99;100.00;52366.56;5074109;28;19940;-72
2022/09/17 00:13:55;;;;;;;;;;;;;;;-144.99;100.00;52360.44;5078323;28;19925;-73
2022/09/17 00:16:23;;;;;;;;;;;;;;;-144.99;100.00;52333.94;5069639;28;19935;-73
2022/09/17 00:18:50;;;;;;;;;;;;;;;-144.99;100.00;52333.94;5078711;28;19929;-73
2022/09/17 00:21:18;;;;;;;;;;;;;;;-144.99;100.00;52384.91;5077156;28;19925;-73
2022/09/17 00:23:45;;;;;;;;;;;;;;;-144.99;100.00;52358.41;5084541;28;19924;-74
2022/09/17 00:26:11;;;;;;;;;;;;;;;-144.99;100.00;52366.56;5090016;28;19935;-73
2022/09/17 00:28:38;;;;;;;;;;;;;;;-144.99;100.00;52350.25;5082115;28;19924;-74
2022/09/17 00:31:07;;;;;;;;;;;;;;;-144.99;100.00;52329.88;5083246;28;20318;-72
2022/09/17 00:33:33;;;;;;;;;;;;;;;-144.99;100.00;52358.41;5091688;28;20375;-72
2022/09/17 00:36:00;;;;;;;;;;;;;;;-144.99;100.00;52370.63;5091609;28;19935;-74
2022/09/17 00:38:28;;;;;;;;;;;;;;;-144.99;100.00;52372.69;5082137;28;19929;-74
2022/09/17 00:40:55;;;;;;;;;;;;;;;-144.99;100.00;52378.78;5081857;28;19924;-73
2022/09/17 00:43:32;;;;;;;;;;;;;;;-144.99;100.00;52356.38;5088207;28;19999;-74
2022/09/17 00:45:59;;;;;;;;;;;;;;;-144.99;100.00;52366.56;5086708;28;19993;-72
2022/09/17 00:48:25;;;;;;;;;;;;;;;-144.99;100.00;52362.50;5080458;28;20014;-72
2022/09/17 00:50:52;;;;;;;;;;;;;;;-144.99;100.00;52354.34;5086137;28;19924;-72
2022/09/17 00:53:21;;;;;;;;;;;;;;;-144.99;100.00;52399.19;5074295;28;20391;-72
2022/09/17 00:55:55;;;;;;;;;;;;;;;-144.99;100.00;52356.38;5087330;28;19931;-72
2022/09/17 00:58:22;;;;;;;;;;;;;;;-144.99;100.00;52354.34;5088578;28;19932;-72
2022/09/17 01:00:48;;;;;;;;;;;;;;;-144.99;100.00;52391.03;5093624;28;19931;-72
2022/09/17 01:03:15;;;;;;;;;;;;;;;-144.99;100.00;52393.06;5086522;28;19928;-74
2022/09/17 01:05:44;;;;;;;;;;;;;;;-144.99;100.00;52407.31;5086748;28;19935;-73
2022/09/17 01:08:17;;;;;;;;;;;;;;;-144.99;100.00;52374.72;5089716;28;19935;-73
2022/09/17 01:11:01;;;;;;;;;;;;;;;-144.99;100.00;52370.63;5072224;28;19928;-73
2022/09/17 01:13:31;;;;;;;;;;;;;;;-144.99;100.00;52370.63;5068667;28;19925;-73
2022/09/17 01:16:03;;;;;;;;;;;;;;;-144.99;100.00;52362.50;5076762;28;19928;-75
2022/09/17 01:18:37;;;;;;;;;;;;;;;-144.99;100.00;52362.50;5082708;28;19925;-73
2022/09/17 01:21:16;;;;;;;;;;;;;;;-144.99;99.86;52323.75;5090095;28;20414;-73
2022/09/17 01:24:06;;;;;;;;;;;;;;;-144.99;99.25;52382.88;5089420;28;19939;-73
2022/09/17 01:26:50;;;;;;;;;;;;;;;-144.99;98.32;52370.63;5074387;28;19935;-72
2022/09/17 01:29:22;;;;;;;;;;;;;;;-144.99;97.93;52399.19;5083377;28;20287;-73
2022/09/17 01:31:53;;;;;;;;;;;;;;;-144.99;97.19;52384.91;5091453;28;19924;-72
2022/09/17 01:34:21;;;;;;;;;;;;;;;-144.99;96.47;52382.88;5088850;28;19928;-71
2022/09/17 01:36:57;;;;;;;;;;;;;;;-144.99;95.76;52391.03;5087998;28;20242;-74
2022/09/17 01:39:30;;;;;;;;;;;;;;;-144.99;95.48;52380.84;5089310;28;19928;-74
2022/09/17 01:41:59;;;;;;;;;;;;;;;-144.99;95.67;52395.09;5088452;28;19970;-74
2022/09/17 01:44:29;;;;;;;;;;;;;;;-144.99;95.60;52374.72;5089601;28;19981;-74
2022/09/17 01:47:01;;;;;;;;;;;;;;;-144.99;96.03;52313.56;5086220;28;20405;-74
2022/09/17 01:49:30;;;;;;;;;;;;;;;-144.99;97.22;52399.19;5088361;28;19931;-73
2022/09/17 01:51:56;;;;;;;;;;;;;;;-144.99;97.31;52338.03;5080799;28;19932;-74
2022/09/17 01:54:25;;;;;;;;;;;;;;;-144.99;98.32;52386.94;5085290;28;20279;-74
2022/09/17 01:56:54;;;;;;;;;;;;;;;-144.99;98.96;52399.19;5087105;28;19930;-74
2022/09/17 01:59:23;;;;;;;;;;;;;;;-144.99;99.16;52382.88;5088743;28;19931;-74
2022/09/17 02:01:52;;;;;;;;;;;;;;;-144.99;100.00;52354.34;5086494;28;19928;-74
2022/09/17 02:04:23;;;;;;;;;;;;;;;-144.99;100.00;52395.09;5089227;28;19928;-73
2022/09/17 02:06:52;;;;;;;;;;;;;;;-144.99;100.00;52393.06;5086799;28;19927;-74
2022/09/17 02:09:21;;;;;;;;;;;;;;;-144.99;100.00;52376.75;5082450;28;19928;-75
2022/09/17 02:11:55;;;;;;;;;;;;;;;-144.99;100.00;52382.88;5067154;28;20448;-74
2022/09/17 02:14:24;;;;;;;;;;;;;;;-144.99;100.00;52350.25;5074079;28;19935;-74
2022/09/17 02:16:54;;;;;;;;;;;;;;;-144.99;100.00;52374.72;5084536;28;19924;-74
2022/09/17 02:19:24;;;;;;;;;;;;;;;-144.99;100.00;52386.94;5085097;28;19931;-75
2022/09/17 02:21:53;;;;;;;;;;;;;;;-144.99;100.00;52350.25;5082730;28;19931;-73
2022/09/17 02:24:20;;;;;;;;;;;;;;;-144.99;100.00;52407.31;5088327;28;20450;-75
2022/09/17 02:26:50;;;;;;;;;;;;;;;-144.99;100.00;52391.03;5083921;28;20415;-74
2022/09/17 02:29:19;;;;;;;;;;;;;;;-144.99;100.00;52374.72;5083434;28;20019;-75
2022/09/17 02:31:46;;;;;;;;;;;;;;;-144.99;100.00;52374.72;5066613;28;20035;-75
2022/09/17 02:34:13;;;;;;;;;;;;;;;-144.99;100.00;52382.88;5069090;28;19924;-75
2022/09/17 02:36:40;;;;;;;;;;;;;;;-144.99;100.00;52378.78;5069128;28;20020;-74
2022/09/17 02:39:08;;;;;;;;;;;;;;;-144.99;100.00;52419.56;5076172;28;20281;-73
2022/09/17 02:41:40;;;;;;;;;;;;;;;-144.99;100.00;52399.19;5087459;28;20041;-75
2022/09/17 02:44:11;;;;;;;;;;;;;;;-144.99;100.00;52372.69;5088291;28;19924;-72
2022/09/17 02:46:47;;;;;;;;;;;;;;;-144.99;100.00;52405.28;5085513;28;19923;-75
2022/09/17 02:49:19;;;;;;;;;;;;;;;-144.99;100.00;52384.91;5086185;28;19935;-75
2022/09/17 02:51:53;;;;;;;;;;;;;;;-144.99;100.00;52407.31;5084183;28;19932;-75
2022/09/17 02:54:24;;;;;;;;;;;;;;;-144.99;100.00;52378.78;5087813;28;19927;-71
2022/09/17 02:56:56;;;;;;;;;;;;;;;-144.99;100.00;52378.78;5085659;28;20015;-73
2022/09/17 02:59:25;;;;;;;;;;;;;;;-144.99;100.00;52374.72;5087487;28;20279;-74
2022/09/17 03:01:56;;;;;;;;;;;;;;;-144.99;100.00;52376.75;5086296;28;19924;-72
2022/09/17 03:04:24;;;;;;;;;;;;;;;-144.99;100.00;52370.63;5088869;28;20031;-73
2022/09/17 03:06:52;;;;;;;;;;;;;;;-144.99;100.00;52374.72;5086451;28;19923;-73
2022/09/17 03:09:19;;;;;;;;;;;;;;;-144.99;100.00;52391.03;5084192;28;19932;-73
2022/09/17 03:11:45;;;;;;;;;;;;;;;-144.99;100.00;52376.75;5066043;28;19928;-74
2022/09/17 03:14:11;;;;;;;;;;;;;;;-144.99;100.00;52407.31;5071082;28;20395;-73
2022/09/17 03:16:38;;;;;;;;;;;;;;;-144.99;100.00;52393.06;5085273;28;19924;-74
2022/09/17 03:19:04;;;;;;;;;;;;;;;-144.99;100.00;52407.31;5081403;28;19931;-75
2022/09/17 03:21:31;;;;;;;;;;;;;;;-144.99;100.00;52354.34;5090776;28;19927;-73
2022/09/17 03:23:59;;;;;;;;;;;;;;;-144.99;100.00;52382.88;5093050;28;19924;-74
2022/09/17 03:26:25;;;;;;;;;;;;;;;-144.99;100.00;52386.94;5090831;28;19928;-75
2022/09/17 03:28:52;;;;;;;;;;;;;;;-144.99;100.00;52419.56;5086274;28;19932;-73
2022/09/17 03:31:18;;;;;;;;;;;;;;;-144.99;100.00;52407.31;5118278;22;20393;-80
2022/09/17 03:33:45;;;;;;;;;;;;;;;-144.99;100.00;52399.19;5084266;28;20081;-80
2022/09/17 03:36:11;;;;;;;;;;;;;;;-144.99;100.00;52413.44;5090154;28;19924;-82
2022/09/17 03:38:38;;;;;;;;;;;;;;;-144.99;100.00;52423.63;5091783;28;19934;-83
2022/09/17 03:41:06;;;;;;;;;;;;;;;-144.99;100.00;52374.72;5094378;28;19974;-82
2022/09/17 03:43:33;;;;;;;;;;;;;;;-144.99;100.00;52368.59;5093687;28;19984;-80
2022/09/17 03:46:00;;;;;;;;;;;;;;;-144.99;100.00;52411.41;5093078;28;20478;-81
2022/09/17 03:48:26;;;;;;;;;;;;;;;-144.99;100.00;52366.56;5084290;28;19977;-80
2022/09/17 03:50:53;;;;;;;;;;;;;;;-144.99;100.00;52395.09;5094369;28;20010;-80
2022/09/17 03:53:19;;;;;;;;;;;;;;;-144.99;100.00;52393.06;5094020;28;19924;-78
2022/09/17 03:55:45;;;;;;;;;;;;;;;-144.99;100.00;52386.94;5100884;28;19924;-80
2022/09/17 03:58:13;;;;;;;;;;;;;;;-144.99;100.00;52421.59;5099120;28;19924;-81
2022/09/17 04:00:39;;;;;;;;;;;;;;;-144.99;100.00;52413.44;5091123;28;20267;-79
2022/09/17 04:03:06;;;;;;;;;;;;;;;-144.99;100.00;52409.38;5087101;28;19924;-82
2022/09/17 04:05:33;;;;;;;;;;;;;;;-144.99;100.00;52378.78;5087118;28;20513;-78
2022/09/17 04:07:59;;;;;;;;;;;;;;;-144.99;100.00;52362.50;5087627;28;20364;-80
2022/09/17 04:10:25;;;;;;;;;;;;;;;-144.99;100.00;52397.13;5085287;28;19928;-80
2022/09/17 04:12:52;;;;;;;;;;;;;;;-144.99;100.00;52413.44;5081202;28;20342;-79
2022/09/17 04:15:19;;;;;;;;;;;;;;;-144.99;100.00;52374.72;5086258;28;19928;-80
2022/09/17 04:17:46;;;;;;;;;;;;;;;-144.99;100.00;52378.78;5084778;28;19931;-80
2022/09/17 04:20:12;;;;;;;;;;;;;;;-144.99;100.00;52423.63;5084378;28;19924;-81
2022/09/17 04:22:39;;;;;;;;;;;;;;;-144.99;100.00;52372.69;5086189;28;19924;-81
2022/09/17 04:25:05;;;;;;;;;;;;;;;-144.99;100.00;52401.22;5086531;28;19935;-79
2022/09/17 04:27:32;;;;;;;;;;;;;;;-144.99;100.00;52374.72;5086590;28;19924;-79
2022/09/17 04:30:00;;;;;;;;;;;;;;;-144.99;100.00;52427.72;5086223;28;19924;-80
2022/09/17 04:32:28;;;;;;;;;;;;;;;-144.99;100.00;52354.34;5080791;28;19982;-80
2022/09/17 04:34:54;;;;;;;;;;;;;;;-144.99;100.00;52370.63;5086173;28;19935;-78
2022/09/17 04:37:20;;;;;;;;;;;;;;;-144.99;100.00;52386.94;5085949;28;19946;-78
2022/09/17 04:39:47;;;;;;;;;;;;;;;-144.99;100.00;52378.78;5085283;28;19939;-78
2022/09/17 04:42:13;;;;;;;;;;;;;;;-144.99;100.00;52364.53;5084562;28;19924;-81
2022/09/17 04:44:39;;;;;;;;;;;;;;;-144.99;100.00;52370.63;5086816;28;20413;-78
2022/09/17 04:47:06;;;;;;;;;;;;;;;-144.99;100.00;52386.94;5084588;28;19924;-78
2022/09/17 04:49:33;;;;;;;;;;;;;;;-144.99;100.00;52419.56;5086493;28;19928;-78
2022/09/17 04:52:00;;;;;;;;;;;;;;;-144.99;100.00;52362.50;5083518;28;19924;-78
2022/09/17 04:54:26;;;;;;;;;;;;;;;-144.99;100.00;52431.78;5084178;28;19930;-78
2022/09/17 04:56:52;;;;;;;;;;;;;;;-144.99;100.00;52370.63;5085036;28;19924;-78
2022/09/17 04:59:19;;;;;;;;;;;;;;;-144.99;100.00;52374.72;5088285;28;19950;-78
2022/09/17 05:01:45;;;;;;;;;;;;;;;-144.99;100.00;52399.19;5086148;28;19978;-78
2022/09/17 05:04:12;;;;;;;;;;;;;;;-144.99;100.00;52395.09;5085621;28;19955;-77
2022/09/17 05:06:39;;;;;;;;;;;;;;;-144.99;100.00;52382.88;5085798;28;20318;-77
2022/09/17 05:09:06;;;;;;;;;;;;;;;-144.99;100.00;52411.41;5086830;28;19924;-83
2022/09/17 05:11:32;;;;;;;;;;;;;;;-144.99;100.00;52370.63;5088828;28;20375;-80
2022/09/17 05:13:59;;;;;;;;;;;;;;;-144.99;100.00;52354.34;5089885;28;20287;-81
2022/09/17 05:16:25;;;;;;;;;;;;;;;-144.99;100.00;52354.34;5088036;28;19928;-81
2022/09/17 05:18:52;;;;;;;;;;;;;;;-144.99;100.00;52395.09;5089763;28;19924;-83
2022/09/17 05:21:19;;;;;;;;;;;;;;;-144.99;100.00;52413.44;5089073;28;19924;-79
2022/09/17 05:23:47;;;;;;;;;;;;;;;-144.99;100.00;52415.47;5088240;28;19935;-79
2022/09/17 05:26:14;;;;;;;;;;;;;;;-144.99;100.00;52366.56;5090304;28;19928;-79
2022/09/17 05:28:40;;;;;;;;;;;;;;;-144.99;100.00;52368.59;5090706;28;20451;-76
2022/09/17 05:31:07;;;;;;;;;;;;;;;-144.99;100.00;52407.31;5088111;28;20336;-81
2022/09/17 05:33:33;;;;;;;;;;;;;;;-144.99;100.00;52403.25;5077372;28;19935;-79
2022/09/17 05:36:00;;;;;;;;;;;;;;;-144.99;100.00;52395.09;5087365;28;19948;-79
2022/09/17 05:38:26;;;;;;;;;;;;;;;-144.99;100.00;52386.94;5086127;28;19936;-77
2022/09/17 05:40:54;;;;;;;;;;;;;;;-144.99;100.00;52415.47;5088209;28;19928;-78
2022/09/17 05:43:20;;;;;;;;;;;;;;;-144.99;100.00;52356.38;5085584;28;20105;-79
2022/09/17 05:45:47;;;;;;;;;;;;;;;-144.99;100.00;52370.63;5089904;28;19934;-81
2022/09/17 05:48:14;;;;;;;;;;;;;;;-144.99;100.00;52399.19;5086457;28;20121;-79
2022/09/17 05:50:41;;;;;;;;;;;;;;;-144.99;100.00;52344.16;5090051;28;19954;-80
2022/09/17 05:53:08;;;;;;;;;;;;;;;-144.99;100.00;52399.19;5086399;28;19950;-80
2022/09/17 05:55:35;;;;;;;;;;;;;;;-144.99;100.00;52395.09;5090280;28;19924;-80
2022/09/17 05:58:08;;;;;;;;;;;;;;;-144.99;100.00;52378.78;5088160;28;19924;-81
2022/09/17 06:00:34;;;;;;;;;;;;;;;-144.99;100.00;52403.25;5091087;28;19930;-79
2022/09/17 06:03:01;;;;;;;;;;;;;;;-144.99;100.00;52386.94;5084767;28;19924;-80
2022/09/17 06:05:27;;;;;;;;;;;;;;;-144.99;100.00;52366.56;5088496;28;20037;-81
2022/09/17 06:07:53;;;;;;;;;;;;;;;-144.99;100.00;52403.25;5089405;28;19924;-79
2022/09/17 06:10:20;;;;;;;;;;;;;;;-144.99;100.00;52362.50;5087862;28;19928;-80
2022/09/17 06:12:46;;;;;;;;;;;;;;;-144.99;100.00;52348.22;5099269;28;19928;-80
2022/09/17 06:15:14;;;;;;;;;;;;;;;-144.99;100.00;52419.56;5087673;28;20253;-84
2022/09/17 06:17:40;;;;;;;;;;;;;;;-144.99;100.00;52344.16;5118690;27;19994;-83
2022/09/17 06:20:07;;;;;;;;;;;;;;;-144.99;100.00;52378.78;5108863;27;19924;-78
2022/09/17 06:22:34;;;;;;;;;;;;;;;-144.99;100.00;52366.56;5074642;28;19928;-80
2022/09/17 06:25:01;;;;;;;;;;;;;;;-144.99;100.00;52378.78;5087299;28;20322;-80
2022/09/17 06:27:30;;;;;;;;;;;;;;;-144.99;100.00;52338.03;5088325;28;19975;-78
2022/09/17 06:29:56;;;;;;;;;;;;;;;-144.99;100.00;52346.19;5088216;28;20382;-79
2022/09/17 06:32:24;;;;;;;;;;;;;;;-144.99;100.00;52378.78;5086239;28;19924;-79
2022/09/17 06:34:50;;;;;;;;;;;;;;;-144.99;100.00;52325.81;5087194;28;20236;-80
2022/09/17 06:37:16;;;;;;;;;;;;;;;-144.99;98.77;52333.94;5089185;28;20279;-82
2022/09/17 06:39:43;;;;;;;;;;;;;;;-144.99;96.99;52301.34;5091167;28;20359;-80
2022/09/17 06:42:11;;;;;;;;;;;;;;;-144.99;94.71;52313.56;5089695;28;19935;-80
2022/09/17 06:44:38;;;;;;;;;;;;;;;-144.99;93.65;52329.88;5088820;28;19928;-80
2022/09/17 06:47:04;;;;;;;;;;;;;;;-144.99;93.16;52325.81;5085536;28;20303;-80
2022/09/17 06:49:32;;;;;;;;;;;;;;;-144.99;90.92;52333.94;5088625;28;19932;-80
2022/09/17 06:51:58;;;;;;;;;;;;;;;-144.99;89.43;52329.88;5087736;28;20387;-78
2022/09/17 06:54:25;;;;;;;;;;;;;;;-144.99;88.83;52344.16;5086208;28;19973;-78
2022/09/17 06:56:51;;;;;;;;;;;;;;;-144.99;88.30;52344.16;5087421;28;20318;-80
2022/09/17 06:59:17;;;;;;;;;;;;;;;-144.99;88.28;52368.59;5091836;28;19923;-80
2022/09/17 07:01:44;;;;;;;;;;;;;;;-144.99;88.93;52354.34;5095615;28;19954;-81
2022/09/17 07:04:10;;;;;;;;;;;;;;;-144.99;89.32;52340.06;5097894;28;20030;-78
2022/09/17 07:06:38;;;;;;;;;;;;;;;-144.99;90.21;52325.81;5094252;28;19932;-79
2022/09/17 07:09:06;;;;;;;;;;;;;;;-144.99;90.78;52350.25;5090819;28;19928;-79
2022/09/17 07:11:33;;;;;;;;;;;;;;;-144.99;90.54;52350.25;5089373;28;19963;-79
2022/09/17 07:13:59;;;;;;;;;;;;;;;-144.99;89.10;52350.25;5087033;28;19939;-78
2022/09/17 07:16:26;;;;;;;;;;;;;;;-144.99;89.51;52333.94;5083142;28;19944;-78
2022/09/17 07:18:53;;;;;;;;;;;;;;;-144.99;89.72;52342.09;5087365;28;20026;-80
2022/09/17 07:21:19;;;;;;;;;;;;;;;-144.99;89.80;52305.41;5087572;28;20327;-78
2022/09/17 07:23:47;;;;;;;;;;;;;;;-144.99;89.56;52378.78;5085765;28;19931;-78
2022/09/17 07:26:14;;;;;;;;;;;;;;;-144.99;90.21;52372.69;5084182;28;20002;-80
2022/09/17 07:28:40;;;;;;;;;;;;;;;-144.99;90.62;52370.63;5087075;28;19924;-79
2022/09/17 07:31:08;;;;;;;;;;;;;;;-144.99;90.31;52354.34;5084822;28;19934;-79
2022/09/17 07:33:35;;;;;;;;;;;;;;;-144.99;90.23;52366.56;5083282;28;20350;-78
2022/09/17 07:36:03;;;;;;;;;;;;;;;-144.99;89.81;52407.31;5087168;28;20375;-78
2022/09/17 07:38:30;;;;;;;;;;;;;;;-144.99;90.54;52342.09;5090668;28;19950;-77
2022/09/17 07:40:58;;;;;;;;;;;;;;;-144.99;90.90;52366.56;5086155;28;19930;-76
2022/09/17 07:43:25;;;;;;;;;;;;;;;-144.99;90.71;52358.41;5085123;28;19924;-74
2022/09/17 07:45:52;;;;;;;;;;;;;;;-144.99;89.92;52364.53;5081633;28;20322;-74
2022/09/17 07:48:18;;;;;;;;;;;;;;;-144.99;88.84;52358.41;5084219;28;19924;-73
2022/09/17 07:50:45;;;;;;;;;;;;;;;-144.99;85.77;52309.50;5085920;28;19924;-73
2022/09/17 07:53:11;;;;;;;;;;;;;;;-144.99;83.65;52336.00;5071937;28;20252;-74
2022/09/17 07:55:37;;;;;;;;;;;;;;;-144.99;81.75;52366.56;5084619;28;20189;-74
2022/09/17 07:58:05;;;;;;;;;;;;;;;-144.99;79.17;52325.81;5085460;28;19928;-75
2022/09/17 08:00:32;;;;;;;;;;;;;;;-144.99;79.10;52358.41;5086269;28;19924;-75
2022/09/17 08:02:58;;;;;;;;;;;;;;;-144.99;79.02;52329.88;5083694;28;20290;-75
2022/09/17 08:05:25;;;;;;;;;;;;;;;-144.99;74.51;52321.72;5083244;28;19977;-74
2022/09/17 08:07:52;;;;;;;;;;;;;;;-144.99;73.20;52321.72;5085542;28;19936;-75
2022/09/17 08:10:20;;;;;;;;;;;;;;;-144.99;71.67;52333.94;5086514;28;20452;-74
2022/09/17 08:12:47;;;;;;;;;;;;;;;-144.99;72.68;52301.34;5086096;28;19950;-75
2022/09/17 08:15:14;;;;;;;;;;;;;;;-144.99;72.70;52329.88;5084742;28;19924;-78
2022/09/17 08:17:42;;;;;;;;;;;;;;;-144.99;71.99;52329.88;5084089;28;19928;-77
2022/09/17 08:20:09;;;;;;;;;;;;;;;-144.99;71.48;52276.88;5086178;28;19925;-80
2022/09/17 08:22:35;;;;;;;;;;;;;;;-144.99;71.21;52336.00;5084343;28;19928;-77
2022/09/17 08:25:03;;;;;;;;;;;;;;;-144.99;71.45;52346.19;5085071;28;19925;-79
2022/09/17 08:27:29;;;;;;;;;;;;;;;-144.99;71.12;52338.03;5085671;28;19924;-77
2022/09/17 08:29:56;;;;;;;;;;;;;;;-144.99;70.64;52342.09;5086493;28;20004;-79
2022/09/17 08:32:23;;;;;;;;;;;;;;;-144.99;71.42;52350.25;5083454;28;20294;-78
2022/09/17 08:34:50;;;;;;;;;;;;;;;-144.99;68.53;52350.25;5083862;28;19924;-78
2022/09/17 08:37:16;;;;;;;;;;;;;;;-144.99;67.42;52313.56;5084620;28;20401;-78
2022/09/17 08:39:43;;;;;;;;;;;;;;;-144.99;66.91;52350.25;5086382;28;20118;-79
2022/09/17 08:42:13;;;;;;;;;;;;;;;-144.99;64.18;52354.34;5084876;28;19935;-77
2022/09/17 08:44:41;;;;;;;;;;;;;;;-144.99;64.65;52338.03;5083828;28;20183;-78
2022/09/17 08:47:11;;;;;;;;;;;;;;;-144.99;62.97;52342.09;5085669;28;19924;-80
2022/09/17 08:49:42;;;;;;;;;;;;;;;-144.99;63.83;52317.66;5088309;28;19928;-79
2022/09/17 08:52:23;;;;;;;;;;;;;;;-144.99;65.66;52319.69;5089511;28;19931;-78
2022/09/17 08:54:55;;;;;;;;;;;;;;;-144.99;68.10;52333.94;5088492;28;19924;-77
2022/09/17 08:57:26;;;;;;;;;;;;;;;-144.99;69.62;52350.25;5087186;28;20340;-78
2022/09/17 08:59:58;;;;;;;;;;;;;;;-144.99;74.43;52378.78;5089741;28;19924;-76
2022/09/17 09:02:32;;;;;;;;;;;;;;;-144.99;74.85;52362.50;5088301;28;19935;-78
2022/09/17 09:05:05;;;;;;;;;;;;;;;-144.99;72.39;52342.09;5088894;28;20001;-77
2022/09/17 09:07:34;;;;;;;;;;;;;;;-144.99;72.37;52354.34;5087411;28;20314;-77
2022/09/17 09:10:06;;;;;;;;;;;;;;;-144.99;70.23;52331.91;5104730;28;19928;-78
2022/09/17 09:12:34;;;;;;;;;;;;;;;-144.99;66.56;52307.47;5092646;28;19928;-78
2022/09/17 09:15:04;;;;;;;;;;;;;;;-144.99;64.69;52260.56;5090444;28;19943;-80
2022/09/17 09:17:34;;;;;;;;;;;;;;;-144.99;62.11;52293.19;5087918;28;20335;-77
2022/09/17 09:20:05;;;;;;;;;;;;;;;-144.99;62.92;52325.81;5088944;28;19924;-78
2022/09/17 09:22:45;;;;;;;;;;;;;;;-144.99;63.96;52315.59;5088026;28;20065;-79
2022/09/17 09:25:19;;;;;;;;;;;;;;;-144.99;66.10;52311.53;5089890;28;19928;-79
2022/09/17 09:27:49;;;;;;;;;;;;;;;-144.99;68.54;52333.94;5089621;28;19924;-79
2022/09/17 09:30:17;;;;;;;;;;;;;;;-144.99;68.38;52336.00;5086710;28;19932;-78
2022/09/17 09:32:51;;;;;;;;;;;;;;;-144.99;68.80;52366.56;5101218;22;19983;-77
2022/09/17 09:35:20;;;;;;;;;;;;;;;-144.99;68.13;52309.50;5062554;28;19947;-77
2022/09/17 09:37:52;;;;;;;;;;;;;;;-144.99;70.01;52338.03;5078752;28;20383;-76
2022/09/17 09:40:31;;;;;;;;;;;;;;;-144.99;68.90;52333.94;5075129;28;20410;-77
2022/09/17 09:43:01;;;;;;;;;;;;;;;-144.99;71.12;52378.78;5077157;28;19928;-77
2022/09/17 09:45:35;;;;;;;;;;;;;;;-144.99;72.41;52311.53;5076027;28;19979;-77
2022/09/17 09:48:07;;;;;;;;;;;;;;;-144.99;73.36;52362.50;5074337;28;19935;-75
2022/09/17 09:50:43;;;;;;;;;;;;;;;-144.99;74.55;52366.56;5066061;28;20111;-77
2022/09/17 09:53:12;;;;;;;;;;;;;;;-144.99;75.56;52321.72;5062617;28;19931;-77
2022/09/17 09:58:35;;;;;;;;;;;;;;;-144.99;73.95;52319.69;5064909;28;19983;-78
2022/09/17 10:01:02;;;;;;;;;;;;;;;-144.99;73.11;52299.31;5065647;28;20019;-75
2022/09/17 10:03:31;;;;;;;;;;;;;;;-144.99;70.76;52305.41;5072025;28;19924;-78
2022/09/17 10:05:59;;;;;;;;;;;;;;;-144.99;67.27;52305.41;5074027;28;19925;-78
2022/09/17 10:08:27;;;;;;;;;;;;;;;-144.99;62.79;52272.81;5071059;28;19924;-77
2022/09/17 10:10:55;;;;;;;;;;;;;;;-144.99;61.36;52252.44;5067755;28;19925;-77
2022/09/17 10:13:22;;;;;;;;;;;;;;;-144.99;58.02;52195.34;5076746;28;19924;-78
2022/09/17 10:15:49;;;;;;;;;;;;;;;-144.99;58.43;52260.56;5075630;28;19924;-79
2022/09/17 10:18:17;;;;;;;;;;;;;;;-144.99;60.10;52264.66;5078342;28;19924;-77
2022/09/17 10:20:51;;;;;;;;;;;;;;;-144.99;62.96;52307.47;5079232;28;19947;-77
2022/09/17 10:23:19;;;;;;;;;;;;;;;-144.99;69.50;52309.50;5074486;28;19948;-78
2022/09/17 10:25:45;;;;;;;;;;;;;;;-144.99;75.71;52358.41;5075743;28;19986;-78
2022/09/17 10:28:25;;;;;;;;;;;;;;;-144.99;78.73;52342.09;5080068;28;19982;-78
2022/09/17 10:30:58;;;;;;;;;;;;;;;-144.99;79.78;52307.47;5080242;28;19960;-76
2022/09/17 10:33:26;;;;;;;;;;;;;;;-144.99;82.67;52346.19;5073443;28;19979;-79
2022/09/17 10:35:57;;;;;;;;;;;;;;;-144.99;84.93;52372.69;5066978;28;19951;-78
2022/09/17 10:38:32;;;;;;;;;;;;;;;-144.99;89.07;52395.09;5075648;28;20023;-79
2022/09/17 10:41:13;;;;;;;;;;;;;;;-144.99;90.37;52362.50;5076296;28;20326;-78
2022/09/17 10:43:40;;;;;;;;;;;;;;;-144.99;91.16;52370.63;5071695;28;19940;-79
2022/09/17 10:46:08;;;;;;;;;;;;;;;-144.99;90.47;52370.63;5073041;28;19925;-77
2022/09/17 10:48:38;;;;;;;;;;;;;;;-144.99;90.35;52329.88;5064151;28;20387;-78
2022/09/17 10:51:07;;;;;;;;;;;;;;;-144.99;89.71;52321.72;5063321;28;19960;-78
2022/09/17 10:53:53;;;;;;;;;;;;;;;-144.99;85.81;52207.59;5073429;28;20015;-78
2022/09/17 10:56:22;;;;;;;;;;;;;;;-144.99;74.67;52130.13;5072142;28;19960;-76
2022/09/17 10:58:56;;;;;;;;;;;;;;;-144.99;72.58;52166.81;5070307;28;19924;-77
2022/09/17 11:01:32;;;;;;;;;;;;;;;-144.99;68.44;52117.91;5060951;28;20465;-76
2022/09/17 11:04:16;;;;;;;;;;;;;;;-144.99;62.44;52172.94;5060445;28;19960;-77
2022/09/17 11:06:51;;;;;;;;;;;;;;;-144.99;62.06;52268.72;5061102;28;19931;-78
2022/09/17 11:09:25;;;;;;;;;;;;;;;-144.99;60.95;52238.16;5070912;28;19928;-76
2022/09/17 11:11:58;;;;;;;;;;;;;;;-144.99;60.12;52117.91;5061589;28;20395;-77
2022/09/17 11:14:36;;;;;;;;;;;;;;;-144.99;56.79;52077.16;5065145;28;19952;-76
2022/09/17 11:17:07;;;;;;;;;;;;;;;-144.99;56.58;52089.38;5063683;28;19924;-75
2022/09/17 11:19:38;;;;;;;;;;;;;;;-144.99;55.12;52073.06;5057771;28;20019;-79
2022/09/17 11:22:07;;;;;;;;;;;;;;;-144.99;55.51;52113.84;5056962;28;20016;-78
2022/09/17 11:24:47;;;;;;;;;;;;;;;-144.99;53.33;52219.81;5074648;28;19924;-77
2022/09/17 11:27:19;;;;;;;;;;;;;;;-144.99;53.25;52166.81;5072836;28;19938;-76
2022/09/17 11:29:54;;;;;;;;;;;;;;;-144.99;53.43;52227.97;5082773;28;19924;-78
2022/09/17 11:32:29;;;;;;;;;;;;;;;-144.99;55.67;52195.34;5074912;28;20031;-76
2022/09/17 11:34:58;;;;;;;;;;;;;;;-144.99;54.41;52225.94;5056986;28;19929;-78
2022/09/17 11:37:26;;;;;;;;;;;;;;;-144.99;52.43;52203.50;5068874;28;19981;-78
2022/09/17 11:39:57;;;;;;;;;;;;;;;-144.99;52.84;52138.28;5063889;28;19925;-76
2022/09/17 11:42:28;;;;;;;;;;;;;;;-144.99;53.55;52240.19;5068894;28;19924;-79
2022/09/17 11:44:58;;;;;;;;;;;;;;;-144.99;55.78;52266.69;5073442;28;20404;-77
2022/09/17 11:47:29;;;;;;;;;;;;;;;-144.99;57.62;52195.34;5057365;28;19933;-77
2022/09/17 11:49:59;;;;;;;;;;;;;;;-144.99;58.25;52232.03;5057536;28;20410;-78
2022/09/17 11:52:28;;;;;;;;;;;;;;;-144.99;58.68;52280.97;5066972;28;19971;-80
2022/09/17 11:54:59;;;;;;;;;;;;;;;-144.99;58.77;52227.97;5072817;28;19974;-77
2022/09/17 11:57:27;;;;;;;;;;;;;;;-144.99;59.06;52113.84;5067713;28;20008;-78
2022/09/17 11:59:56;;;;;;;;;;;;;;;-144.99;55.55;52138.28;5055774;28;19925;-76
2022/09/17 12:02:25;;;;;;;;;;;;;;;-144.99;52.99;52113.84;5051839;28;20384;-76
2022/09/17 12:04:56;;;;;;;;;;;;;;;-144.99;51.56;52236.13;5052780;28;19971;-78
2022/09/17 12:07:31;;;;;;;;;;;;;;;-144.99;52.73;52203.50;5067201;28;19929;-77
2022/09/17 12:10:03;;;;;;;;;;;;;;;-144.99;53.43;52134.22;5065640;28;19925;-79
2022/09/17 12:12:31;;;;;;;;;;;;;;;-144.99;52.33;52162.75;5073226;28;20434;-77
2022/09/17 12:15:01;;;;;;;;;;;;;;;-144.99;51.98;52187.19;5064775;28;20012;-77
2022/09/17 12:17:31;;;;;;;;;;;;;;;-144.99;49.91;52138.28;5056647;28;20827;-78
2022/09/17 12:20:02;;;;;;;;;;;;;;;-144.99;47.68;52048.63;5069093;28;19928;-77
2022/09/17 12:22:31;;;;;;;;;;;;;;;-144.99;46.75;51983.41;5058420;28;19925;-77
2022/09/17 12:24:57;;;;;;;;;;;;;;;-144.99;44.66;52083.25;5074200;28;19928;-78
2022/09/17 12:27:32;;;;;;;;;;;;;;;-144.99;44.03;51983.41;5067164;28;19933;-77
2022/09/17 12:30:12;;;;;;;;;;;;;;;-144.99;42.95;52138.28;5058614;28;19924;-77
2022/09/17 12:32:46;;;;;;;;;;;;;;;-144.99;43.37;52036.38;5071109;28;19924;-77
2022/09/17 12:35:17;;;;;;;;;;;;;;;-144.99;44.24;52236.13;5054883;28;19939;-77